sensor_id;sensor_type;location;lat;lon;timestamp;temperature;humidity
37002;DHT22;22913;51.910;8.374;2022-07-03T00:00:03;20.90;99.90
37002;DHT22;22913;51.910;8.374;2022-07-03T00:02:49;20.90;99.90
37002;DHT22;22913;51.910;8.374;2022-07-03T00:05:35;20.80;99.90
37002;DHT22;22913;51.910;8.374;2022-07-03T00:08:20;20.80;99.90
37002;DHT22;22913;51.910;8.374;2022-07-03T00:11:08;20.80;99.90
37002;DHT22;22913;51.910;8.374;2022-07-03T00:13:54;20.70;99.90
37002;DHT22;22913;51.910;8.374;2022-07-03T00:16:39;20.70;99.90
37002;DHT22;22913;51.910;8.374;2022-07-03T00:19:25;20.70;99.90
37002;DHT22;22913;51.910;8.374;2022-07-03T00:22:12;20.70;99.90
37002;DHT22;22913;51.910;8.374;2022-07-03T00:25:00;20.60;99.90
37002;DHT22;22913;51.910;8.374;2022-07-03T00:27:49;20.60;99.90
37002;DHT22;22913;51.910;8.374;2022-07-03T00:30:35;20.60;99.90
37002;DHT22;22913;51.910;8.374;2022-07-03T00:33:23;20.50;99.90
37002;DHT22;22913;51.910;8.374;2022-07-03T00:36:09;20.60;99.90
37002;DHT22;22913;51.910;8.374;2022-07-03T00:38:55;20.50;99.90
37002;DHT22;22913;51.910;8.374;2022-07-03T00:41:41;20.40;99.90
37002;DHT22;22913;51.910;8.374;2022-07-03T00:44:30;20.40;99.90
37002;DHT22;22913;51.910;8.374;2022-07-03T00:47:19;20.30;99.90
37002;DHT22;22913;51.910;8.374;2022-07-03T00:50:07;20.20;99.90
37002;DHT22;22913;51.910;8.374;2022-07-03T00:52:55;20.10;99.90
37002;DHT22;22913;51.910;8.374;2022-07-03T00:55:45;20.00;99.90
37002;DHT22;22913;51.910;8.374;2022-07-03T00:58:32;19.90;99.90
37002;DHT22;22913;51.910;8.374;2022-07-03T01:01:21;19.80;99.90
37002;DHT22;22913;51.910;8.374;2022-07-03T01:04:17;19.80;99.90
37002;DHT22;22913;51.910;8.374;2022-07-03T01:07:07;19.80;99.90
37002;DHT22;22913;51.910;8.374;2022-07-03T01:10:03;19.60;99.90
37002;DHT22;22913;51.910;8.374;2022-07-03T01:12:56;19.60;99.90
37002;DHT22;22913;51.910;8.374;2022-07-03T01:15:52;19.60;99.90
37002;DHT22;22913;51.910;8.374;2022-07-03T01:18:45;19.50;99.90
37002;DHT22;22913;51.910;8.374;2022-07-03T01:21:35;19.50;99.90
37002;DHT22;22913;51.910;8.374;2022-07-03T01:24:37;19.40;99.90
37002;DHT22;22913;51.910;8.374;2022-07-03T01:27:29;19.30;99.90
37002;DHT22;22913;51.910;8.374;2022-07-03T01:30:19;19.30;99.90
37002;DHT22;22913;51.910;8.374;2022-07-03T01:33:07;19.20;99.90
37002;DHT22;22913;51.910;8.374;2022-07-03T01:36:02;19.20;99.90
37002;DHT22;22913;51.910;8.374;2022-07-03T01:38:50;19.10;99.90
37002;DHT22;22913;51.910;8.374;2022-07-03T01:41:36;19.10;99.90
37002;DHT22;22913;51.910;8.374;2022-07-03T01:44:25;19.00;99.90
37002;DHT22;22913;51.910;8.374;2022-07-03T01:47:12;19.00;99.90
37002;DHT22;22913;51.910;8.374;2022-07-03T01:50:00;18.90;99.90
37002;DHT22;22913;51.910;8.374;2022-07-03T01:52:48;18.80;99.90
37002;DHT22;22913;51.910;8.374;2022-07-03T01:55:38;18.80;99.90
37002;DHT22;22913;51.910;8.374;2022-07-03T01:58:23;18.80;99.90
37002;DHT22;22913;51.910;8.374;2022-07-03T02:01:18;18.80;99.90
37002;DHT22;22913;51.910;8.374;2022-07-03T02:04:14;18.90;99.90
37002;DHT22;22913;51.910;8.374;2022-07-03T02:07:08;18.80;99.90
37002;DHT22;22913;51.910;8.374;2022-07-03T02:10:02;18.70;99.90
37002;DHT22;22913;51.910;8.374;2022-07-03T02:12:50;18.60;99.90
37002;DHT22;22913;51.910;8.374;2022-07-03T02:15:42;18.60;99.90
37002;DHT22;22913;51.910;8.374;2022-07-03T02:18:33;18.50;99.90
37002;DHT22;22913;51.910;8.374;2022-07-03T02:21:19;18.40;99.90
37002;DHT22;22913;51.910;8.374;2022-07-03T02:24:16;18.40;99.90
37002;DHT22;22913;51.910;8.374;2022-07-03T02:27:04;18.30;99.90
37002;DHT22;22913;51.910;8.374;2022-07-03T02:29:56;18.20;99.90
37002;DHT22;22913;51.910;8.374;2022-07-03T02:32:48;18.20;99.90
37002;DHT22;22913;51.910;8.374;2022-07-03T02:35:35;18.30;99.90
37002;DHT22;22913;51.910;8.374;2022-07-03T02:38:21;18.20;99.90
37002;DHT22;22913;51.910;8.374;2022-07-03T02:41:10;18.10;99.90
37002;DHT22;22913;51.910;8.374;2022-07-03T02:44:01;18.20;99.90
37002;DHT22;22913;51.910;8.374;2022-07-03T02:46:54;18.10;99.90
37002;DHT22;22913;51.910;8.374;2022-07-03T02:49:53;18.00;99.90
37002;DHT22;22913;51.910;8.374;2022-07-03T02:52:49;18.00;99.90
37002;DHT22;22913;51.910;8.374;2022-07-03T02:55:42;18.00;99.90
37002;DHT22;22913;51.910;8.374;2022-07-03T03:02:03;17.90;99.90
37002;DHT22;22913;51.910;8.374;2022-07-03T03:04:57;17.90;99.90
37002;DHT22;22913;51.910;8.374;2022-07-03T03:07:55;17.80;99.90
37002;DHT22;22913;51.910;8.374;2022-07-03T03:10:45;17.80;99.90
37002;DHT22;22913;51.910;8.374;2022-07-03T03:13:32;17.70;99.90
37002;DHT22;22913;51.910;8.374;2022-07-03T03:16:17;17.70;99.90
37002;DHT22;22913;51.910;8.374;2022-07-03T03:19:03;17.70;99.90
37002;DHT22;22913;51.910;8.374;2022-07-03T03:21:57;17.60;99.90
37002;DHT22;22913;51.910;8.374;2022-07-03T03:24:45;17.60;99.90
37002;DHT22;22913;51.910;8.374;2022-07-03T03:27:31;17.50;99.90
37002;DHT22;22913;51.910;8.374;2022-07-03T03:30:16;17.50;99.90
37002;DHT22;22913;51.910;8.374;2022-07-03T03:33:02;17.40;99.90
37002;DHT22;22913;51.910;8.374;2022-07-03T03:35:48;17.50;99.90
37002;DHT22;22913;51.910;8.374;2022-07-03T03:38:35;17.40;99.90
37002;DHT22;22913;51.910;8.374;2022-07-03T03:41:22;17.40;99.90
37002;DHT22;22913;51.910;8.374;2022-07-03T03:44:07;17.40;99.90
37002;DHT22;22913;51.910;8.374;2022-07-03T03:46:54;17.40;99.90
37002;DHT22;22913;51.910;8.374;2022-07-03T03:49:40;17.30;99.90
37002;DHT22;22913;51.910;8.374;2022-07-03T03:52:26;17.40;99.90
37002;DHT22;22913;51.910;8.374;2022-07-03T03:55:12;17.40;99.90
37002;DHT22;22913;51.910;8.374;2022-07-03T03:57:59;17.30;99.90
37002;DHT22;22913;51.910;8.374;2022-07-03T04:00:46;17.30;99.90
37002;DHT22;22913;51.910;8.374;2022-07-03T04:03:33;17.30;99.90
37002;DHT22;22913;51.910;8.374;2022-07-03T04:06:19;17.30;99.90
37002;DHT22;22913;51.910;8.374;2022-07-03T04:09:04;17.30;99.90
37002;DHT22;22913;51.910;8.374;2022-07-03T04:11:50;17.30;99.90
37002;DHT22;22913;51.910;8.374;2022-07-03T04:14:37;17.20;99.90
37002;DHT22;22913;51.910;8.374;2022-07-03T04:17:23;17.20;99.90
37002;DHT22;22913;51.910;8.374;2022-07-03T04:20:09;17.10;99.90
37002;DHT22;22913;51.910;8.374;2022-07-03T04:22:55;17.20;99.90
37002;DHT22;22913;51.910;8.374;2022-07-03T04:25:41;17.20;99.90
37002;DHT22;22913;51.910;8.374;2022-07-03T04:28:26;17.30;99.90
37002;DHT22;22913;51.910;8.374;2022-07-03T04:31:13;17.20;99.90
37002;DHT22;22913;51.910;8.374;2022-07-03T04:33:59;17.20;99.90
37002;DHT22;22913;51.910;8.374;2022-07-03T04:36:45;17.20;99.90
37002;DHT22;22913;51.910;8.374;2022-07-03T04:39:31;17.10;99.90
37002;DHT22;22913;51.910;8.374;2022-07-03T04:42:16;17.20;99.90
37002;DHT22;22913;51.910;8.374;2022-07-03T04:45:02;17.20;99.90
37002;DHT22;22913;51.910;8.374;2022-07-03T04:47:50;17.20;99.90
37002;DHT22;22913;51.910;8.374;2022-07-03T04:50:35;17.20;99.90
37002;DHT22;22913;51.910;8.374;2022-07-03T04:53:21;17.20;99.90
37002;DHT22;22913;51.910;8.374;2022-07-03T04:56:07;17.10;99.90
37002;DHT22;22913;51.910;8.374;2022-07-03T04:58:53;17.20;99.90
37002;DHT22;22913;51.910;8.374;2022-07-03T05:01:38;17.20;99.90
37002;DHT22;22913;51.910;8.374;2022-07-03T05:04:26;17.20;99.90
37002;DHT22;22913;51.910;8.374;2022-07-03T05:07:11;17.20;99.90
37002;DHT22;22913;51.910;8.374;2022-07-03T05:09:57;17.40;99.90
37002;DHT22;22913;51.910;8.374;2022-07-03T05:12:43;17.40;99.90
37002;DHT22;22913;51.910;8.374;2022-07-03T05:15:29;17.50;99.90
37002;DHT22;22913;51.910;8.374;2022-07-03T05:18:15;17.50;99.90
37002;DHT22;22913;51.910;8.374;2022-07-03T05:21:02;17.60;99.90
37002;DHT22;22913;51.910;8.374;2022-07-03T05:23:47;17.60;99.90
37002;DHT22;22913;51.910;8.374;2022-07-03T05:26:34;17.60;99.90
37002;DHT22;22913;51.910;8.374;2022-07-03T05:29:19;17.70;99.90
37002;DHT22;22913;51.910;8.374;2022-07-03T05:32:06;17.80;99.90
37002;DHT22;22913;51.910;8.374;2022-07-03T05:34:51;17.80;99.90
37002;DHT22;22913;51.910;8.374;2022-07-03T05:37:38;17.90;99.90
37002;DHT22;22913;51.910;8.374;2022-07-03T05:40:24;17.90;99.90
37002;DHT22;22913;51.910;8.374;2022-07-03T05:43:10;18.00;99.90
37002;DHT22;22913;51.910;8.374;2022-07-03T05:45:56;18.00;99.90
37002;DHT22;22913;51.910;8.374;2022-07-03T05:48:42;18.10;99.90
37002;DHT22;22913;51.910;8.374;2022-07-03T05:51:28;18.20;99.90
37002;DHT22;22913;51.910;8.374;2022-07-03T05:54:15;18.30;99.90
37002;DHT22;22913;51.910;8.374;2022-07-03T05:57:01;18.30;99.90
37002;DHT22;22913;51.910;8.374;2022-07-03T05:59:47;18.40;99.90
37002;DHT22;22913;51.910;8.374;2022-07-03T06:02:32;18.40;99.90
37002;DHT22;22913;51.910;8.374;2022-07-03T06:05:18;18.60;99.90
37002;DHT22;22913;51.910;8.374;2022-07-03T06:08:04;18.70;99.90
37002;DHT22;22913;51.910;8.374;2022-07-03T06:10:51;18.80;99.90
37002;DHT22;22913;51.910;8.374;2022-07-03T06:13:36;18.90;99.90
37002;DHT22;22913;51.910;8.374;2022-07-03T06:16:22;19.00;99.90
37002;DHT22;22913;51.910;8.374;2022-07-03T06:19:08;19.00;99.90
37002;DHT22;22913;51.910;8.374;2022-07-03T06:21:54;19.10;99.90
37002;DHT22;22913;51.910;8.374;2022-07-03T06:24:39;19.20;99.90
37002;DHT22;22913;51.910;8.374;2022-07-03T06:27:27;19.30;99.90
37002;DHT22;22913;51.910;8.374;2022-07-03T06:30:12;19.50;99.90
37002;DHT22;22913;51.910;8.374;2022-07-03T06:32:58;19.60;99.90
37002;DHT22;22913;51.910;8.374;2022-07-03T06:35:44;19.70;99.90
37002;DHT22;22913;51.910;8.374;2022-07-03T06:38:30;19.70;99.90
37002;DHT22;22913;51.910;8.374;2022-07-03T06:41:15;19.70;99.90
37002;DHT22;22913;51.910;8.374;2022-07-03T06:44:03;19.70;99.90
37002;DHT22;22913;51.910;8.374;2022-07-03T06:46:49;19.80;99.90
37002;DHT22;22913;51.910;8.374;2022-07-03T06:49:35;19.90;99.90
37002;DHT22;22913;51.910;8.374;2022-07-03T06:52:20;20.00;99.90
37002;DHT22;22913;51.910;8.374;2022-07-03T06:55:07;20.00;99.90
37002;DHT22;22913;51.910;8.374;2022-07-03T06:57:52;20.20;99.90
37002;DHT22;22913;51.910;8.374;2022-07-03T07:00:40;20.20;99.90
37002;DHT22;22913;51.910;8.374;2022-07-03T07:03:25;20.30;99.90
37002;DHT22;22913;51.910;8.374;2022-07-03T07:06:11;20.40;99.90
37002;DHT22;22913;51.910;8.374;2022-07-03T07:08:57;20.50;99.90
37002;DHT22;22913;51.910;8.374;2022-07-03T07:11:42;20.60;99.90
37002;DHT22;22913;51.910;8.374;2022-07-03T07:14:28;20.70;99.90
37002;DHT22;22913;51.910;8.374;2022-07-03T07:17:15;20.80;99.90
37002;DHT22;22913;51.910;8.374;2022-07-03T07:20:00;21.00;99.90
37002;DHT22;22913;51.910;8.374;2022-07-03T07:22:46;21.10;99.90
37002;DHT22;22913;51.910;8.374;2022-07-03T07:25:32;21.30;99.90
37002;DHT22;22913;51.910;8.374;2022-07-03T07:28:17;21.30;99.90
37002;DHT22;22913;51.910;8.374;2022-07-03T07:31:03;21.30;99.90
37002;DHT22;22913;51.910;8.374;2022-07-03T07:33:50;21.50;99.90
37002;DHT22;22913;51.910;8.374;2022-07-03T07:36:36;21.60;99.90
37002;DHT22;22913;51.910;8.374;2022-07-03T07:39:21;21.60;99.90
37002;DHT22;22913;51.910;8.374;2022-07-03T07:42:07;21.70;99.90
37002;DHT22;22913;51.910;8.374;2022-07-03T07:44:53;21.90;99.90
37002;DHT22;22913;51.910;8.374;2022-07-03T07:47:39;22.00;99.90
37002;DHT22;22913;51.910;8.374;2022-07-03T07:50:26;22.00;99.90
37002;DHT22;22913;51.910;8.374;2022-07-03T07:53:11;22.20;99.90
37002;DHT22;22913;51.910;8.374;2022-07-03T07:55:57;22.30;99.90
37002;DHT22;22913;51.910;8.374;2022-07-03T07:58:43;22.50;99.90
37002;DHT22;22913;51.910;8.374;2022-07-03T08:01:29;22.60;99.90
37002;DHT22;22913;51.910;8.374;2022-07-03T08:04:32;22.80;99.90
37002;DHT22;22913;51.910;8.374;2022-07-03T08:07:38;23.00;99.90
37002;DHT22;22913;51.910;8.374;2022-07-03T08:10:23;23.10;99.90
37002;DHT22;22913;51.910;8.374;2022-07-03T08:13:11;23.10;99.90
37002;DHT22;22913;51.910;8.374;2022-07-03T08:15:57;23.00;99.90
37002;DHT22;22913;51.910;8.374;2022-07-03T08:18:42;23.10;99.90
37002;DHT22;22913;51.910;8.374;2022-07-03T08:21:28;23.20;99.90
37002;DHT22;22913;51.910;8.374;2022-07-03T08:24:15;23.20;99.90
37002;DHT22;22913;51.910;8.374;2022-07-03T08:27:01;23.30;99.90
37002;DHT22;22913;51.910;8.374;2022-07-03T08:29:47;23.30;99.90
37002;DHT22;22913;51.910;8.374;2022-07-03T08:32:32;23.30;99.90
37002;DHT22;22913;51.910;8.374;2022-07-03T08:35:18;23.30;99.90
37002;DHT22;22913;51.910;8.374;2022-07-03T08:38:03;23.40;99.90
37002;DHT22;22913;51.910;8.374;2022-07-03T08:40:50;23.50;99.90
37002;DHT22;22913;51.910;8.374;2022-07-03T08:43:36;23.60;99.90
37002;DHT22;22913;51.910;8.374;2022-07-03T08:46:24;23.70;99.90
37002;DHT22;22913;51.910;8.374;2022-07-03T08:49:11;23.70;99.90
37002;DHT22;22913;51.910;8.374;2022-07-03T08:51:57;23.80;99.90
37002;DHT22;22913;51.910;8.374;2022-07-03T08:54:45;23.90;99.90
37002;DHT22;22913;51.910;8.374;2022-07-03T08:57:32;24.10;99.90
37002;DHT22;22913;51.910;8.374;2022-07-03T09:00:18;24.10;99.90
37002;DHT22;22913;51.910;8.374;2022-07-03T09:03:09;24.20;99.90
37002;DHT22;22913;51.910;8.374;2022-07-03T09:05:56;24.20;99.90
37002;DHT22;22913;51.910;8.374;2022-07-03T09:08:43;24.40;99.90
37002;DHT22;22913;51.910;8.374;2022-07-03T09:11:29;24.50;99.90
37002;DHT22;22913;51.910;8.374;2022-07-03T09:14:16;24.60;99.90
37002;DHT22;22913;51.910;8.374;2022-07-03T09:17:02;24.70;99.90
37002;DHT22;22913;51.910;8.374;2022-07-03T09:19:50;24.80;99.90
37002;DHT22;22913;51.910;8.374;2022-07-03T09:22:37;25.00;99.90
37002;DHT22;22913;51.910;8.374;2022-07-03T09:25:22;25.10;99.90
37002;DHT22;22913;51.910;8.374;2022-07-03T09:28:08;25.10;99.90
37002;DHT22;22913;51.910;8.374;2022-07-03T09:30:59;25.20;99.90
37002;DHT22;22913;51.910;8.374;2022-07-03T09:33:56;25.40;99.90
37002;DHT22;22913;51.910;8.374;2022-07-03T09:36:42;25.50;99.90
37002;DHT22;22913;51.910;8.374;2022-07-03T09:39:29;25.80;99.90
37002;DHT22;22913;51.910;8.374;2022-07-03T09:42:20;26.00;99.90
37002;DHT22;22913;51.910;8.374;2022-07-03T09:45:06;26.20;99.90
37002;DHT22;22913;51.910;8.374;2022-07-03T09:47:53;26.10;99.90
37002;DHT22;22913;51.910;8.374;2022-07-03T09:50:39;26.10;99.90
37002;DHT22;22913;51.910;8.374;2022-07-03T09:53:25;26.10;99.90
37002;DHT22;22913;51.910;8.374;2022-07-03T09:56:11;26.20;99.90
37002;DHT22;22913;51.910;8.374;2022-07-03T09:59:04;26.30;99.90
37002;DHT22;22913;51.910;8.374;2022-07-03T10:01:51;26.40;99.90
37002;DHT22;22913;51.910;8.374;2022-07-03T10:04:38;26.60;99.90
37002;DHT22;22913;51.910;8.374;2022-07-03T10:07:24;26.80;99.90
37002;DHT22;22913;51.910;8.374;2022-07-03T10:10:10;26.90;99.90
37002;DHT22;22913;51.910;8.374;2022-07-03T10:12:56;27.00;99.90
37002;DHT22;22913;51.910;8.374;2022-07-03T10:15:43;27.00;99.90
37002;DHT22;22913;51.910;8.374;2022-07-03T10:18:30;27.10;99.90
37002;DHT22;22913;51.910;8.374;2022-07-03T10:21:17;27.10;99.90
37002;DHT22;22913;51.910;8.374;2022-07-03T10:24:05;26.90;99.90
37002;DHT22;22913;51.910;8.374;2022-07-03T10:26:51;26.90;99.90
37002;DHT22;22913;51.910;8.374;2022-07-03T10:29:38;27.00;99.90
37002;DHT22;22913;51.910;8.374;2022-07-03T10:32:25;27.20;99.90
37002;DHT22;22913;51.910;8.374;2022-07-03T10:35:13;27.50;99.90
37002;DHT22;22913;51.910;8.374;2022-07-03T10:38:18;27.70;99.90
37002;DHT22;22913;51.910;8.374;2022-07-03T10:41:10;28.00;99.90
37002;DHT22;22913;51.910;8.374;2022-07-03T10:44:15;28.20;99.90
37002;DHT22;22913;51.910;8.374;2022-07-03T10:47:44;28.10;99.90
37002;DHT22;22913;51.910;8.374;2022-07-03T10:50:29;28.10;99.90
37002;DHT22;22913;51.910;8.374;2022-07-03T10:53:28;28.20;99.90
37002;DHT22;22913;51.910;8.374;2022-07-03T10:56:14;28.50;99.90
37002;DHT22;22913;51.910;8.374;2022-07-03T10:59:00;28.70;99.90
37002;DHT22;22913;51.910;8.374;2022-07-03T11:01:46;28.70;99.90
37002;DHT22;22913;51.910;8.374;2022-07-03T11:08:07;29.30;99.90
37002;DHT22;22913;51.910;8.374;2022-07-03T11:10:55;29.50;99.90
37002;DHT22;22913;51.910;8.374;2022-07-03T11:14:19;29.80;99.90
37002;DHT22;22913;51.910;8.374;2022-07-03T11:17:17;29.90;99.90
37002;DHT22;22913;51.910;8.374;2022-07-03T11:20:05;30.00;99.90
37002;DHT22;22913;51.910;8.374;2022-07-03T11:23:16;30.00;99.90
37002;DHT22;22913;51.910;8.374;2022-07-03T11:26:20;30.10;99.90
37002;DHT22;22913;51.910;8.374;2022-07-03T11:29:06;30.10;99.90
37002;DHT22;22913;51.910;8.374;2022-07-03T11:31:52;30.50;99.90
37002;DHT22;22913;51.910;8.374;2022-07-03T11:34:42;30.80;99.90
37002;DHT22;22913;51.910;8.374;2022-07-03T11:37:29;30.80;99.90
37002;DHT22;22913;51.910;8.374;2022-07-03T11:40:17;30.80;99.90
37002;DHT22;22913;51.910;8.374;2022-07-03T11:43:05;30.50;99.90
37002;DHT22;22913;51.910;8.374;2022-07-03T11:45:51;30.20;99.90
37002;DHT22;22913;51.910;8.374;2022-07-03T11:48:37;30.00;99.90
37002;DHT22;22913;51.910;8.374;2022-07-03T11:51:23;30.00;99.90
37002;DHT22;22913;51.910;8.374;2022-07-03T11:54:08;30.20;99.90
37002;DHT22;22913;51.910;8.374;2022-07-03T11:56:54;30.60;99.90
37002;DHT22;22913;51.910;8.374;2022-07-03T11:59:41;31.10;99.90
37002;DHT22;22913;51.910;8.374;2022-07-03T12:02:27;31.20;99.90
37002;DHT22;22913;51.910;8.374;2022-07-03T12:05:15;31.20;99.90
37002;DHT22;22913;51.910;8.374;2022-07-03T12:08:05;31.30;99.90
37002;DHT22;22913;51.910;8.374;2022-07-03T12:10:56;31.20;99.70
37002;DHT22;22913;51.910;8.374;2022-07-03T12:13:43;30.90;99.00
37002;DHT22;22913;51.910;8.374;2022-07-03T12:16:33;30.80;98.30
37002;DHT22;22913;51.910;8.374;2022-07-03T12:19:19;30.40;99.10
37002;DHT22;22913;51.910;8.374;2022-07-03T12:22:05;30.20;99.00
37002;DHT22;22913;51.910;8.374;2022-07-03T12:24:59;30.10;99.30
37002;DHT22;22913;51.910;8.374;2022-07-03T12:27:45;30.20;99.40
37002;DHT22;22913;51.910;8.374;2022-07-03T12:30:31;30.30;99.00
37002;DHT22;22913;51.910;8.374;2022-07-03T12:33:19;30.10;99.90
37002;DHT22;22913;51.910;8.374;2022-07-03T12:36:05;30.20;99.90
37002;DHT22;22913;51.910;8.374;2022-07-03T12:38:52;30.30;99.90
37002;DHT22;22913;51.910;8.374;2022-07-03T12:41:38;30.40;99.90
37002;DHT22;22913;51.910;8.374;2022-07-03T12:44:24;30.40;99.20
37002;DHT22;22913;51.910;8.374;2022-07-03T12:47:09;30.20;99.60
37002;DHT22;22913;51.910;8.374;2022-07-03T12:49:57;30.40;99.90
37002;DHT22;22913;51.910;8.374;2022-07-03T12:52:52;30.70;99.00
37002;DHT22;22913;51.910;8.374;2022-07-03T12:55:44;31.20;99.00
37002;DHT22;22913;51.910;8.374;2022-07-03T12:58:30;31.40;99.40
37002;DHT22;22913;51.910;8.374;2022-07-03T13:01:36;31.80;99.20
37002;DHT22;22913;51.910;8.374;2022-07-03T13:04:33;32.10;97.50
37002;DHT22;22913;51.910;8.374;2022-07-03T13:07:20;31.70;98.10
37002;DHT22;22913;51.910;8.374;2022-07-03T13:10:07;31.10;98.30
37002;DHT22;22913;51.910;8.374;2022-07-03T13:12:55;30.60;98.60
37002;DHT22;22913;51.910;8.374;2022-07-03T13:15:41;30.60;98.80
37002;DHT22;22913;51.910;8.374;2022-07-03T13:18:27;30.90;98.90
37002;DHT22;22913;51.910;8.374;2022-07-03T13:21:13;31.50;98.80
37002;DHT22;22913;51.910;8.374;2022-07-03T13:24:00;32.20;97.90
37002;DHT22;22913;51.910;8.374;2022-07-03T13:26:46;32.90;98.00
37002;DHT22;22913;51.910;8.374;2022-07-03T13:29:32;32.70;97.40
37002;DHT22;22913;51.910;8.374;2022-07-03T13:32:18;32.60;97.50
37002;DHT22;22913;51.910;8.374;2022-07-03T13:35:04;32.90;97.40
37002;DHT22;22913;51.910;8.374;2022-07-03T13:37:50;32.50;97.50
37002;DHT22;22913;51.910;8.374;2022-07-03T13:40:37;31.90;97.80
37002;DHT22;22913;51.910;8.374;2022-07-03T13:43:23;31.70;98.40
37002;DHT22;22913;51.910;8.374;2022-07-03T13:46:09;32.30;97.80
37002;DHT22;22913;51.910;8.374;2022-07-03T13:48:54;33.00;97.40
37002;DHT22;22913;51.910;8.374;2022-07-03T13:51:40;33.00;97.20
37002;DHT22;22913;51.910;8.374;2022-07-03T13:54:26;32.60;97.20
37002;DHT22;22913;51.910;8.374;2022-07-03T13:57:13;32.50;97.60
37002;DHT22;22913;51.910;8.374;2022-07-03T13:59:59;32.50;97.70
37002;DHT22;22913;51.910;8.374;2022-07-03T14:02:44;32.60;97.90
37002;DHT22;22913;51.910;8.374;2022-07-03T14:05:30;32.40;97.70
37002;DHT22;22913;51.910;8.374;2022-07-03T14:08:16;31.60;98.50
37002;DHT22;22913;51.910;8.374;2022-07-03T14:11:01;31.30;98.50
37002;DHT22;22913;51.910;8.374;2022-07-03T14:13:48;31.70;98.80
37002;DHT22;22913;51.910;8.374;2022-07-03T14:16:34;32.30;99.00
37002;DHT22;22913;51.910;8.374;2022-07-03T14:19:19;33.10;98.80
37002;DHT22;22913;51.910;8.374;2022-07-03T14:22:05;33.60;98.70
37002;DHT22;22913;51.910;8.374;2022-07-03T14:24:51;33.10;97.80
37002;DHT22;22913;51.910;8.374;2022-07-03T14:27:36;32.40;98.50
37002;DHT22;22913;51.910;8.374;2022-07-03T14:30:41;32.40;99.10
37002;DHT22;22913;51.910;8.374;2022-07-03T14:33:44;32.70;98.70
37002;DHT22;22913;51.910;8.374;2022-07-03T14:36:31;33.30;98.10
37002;DHT22;22913;51.910;8.374;2022-07-03T14:39:17;33.50;98.20
37002;DHT22;22913;51.910;8.374;2022-07-03T14:42:03;34.00;98.20
37002;DHT22;22913;51.910;8.374;2022-07-03T14:44:49;34.30;96.70
37002;DHT22;22913;51.910;8.374;2022-07-03T14:47:36;34.50;95.50
37002;DHT22;22913;51.910;8.374;2022-07-03T14:50:21;34.70;95.10
37002;DHT22;22913;51.910;8.374;2022-07-03T14:53:07;34.40;94.90
37002;DHT22;22913;51.910;8.374;2022-07-03T14:55:53;34.30;94.50
37002;DHT22;22913;51.910;8.374;2022-07-03T14:58:42;34.10;94.30
37002;DHT22;22913;51.910;8.374;2022-07-03T15:01:28;33.70;94.70
37002;DHT22;22913;51.910;8.374;2022-07-03T15:04:28;33.80;94.80
37002;DHT22;22913;51.910;8.374;2022-07-03T15:07:21;33.50;94.50
37002;DHT22;22913;51.910;8.374;2022-07-03T15:10:08;33.20;94.70
37002;DHT22;22913;51.910;8.374;2022-07-03T15:12:55;32.90;94.50
37002;DHT22;22913;51.910;8.374;2022-07-03T15:15:42;32.80;94.60
37002;DHT22;22913;51.910;8.374;2022-07-03T15:18:31;33.30;94.40
37002;DHT22;22913;51.910;8.374;2022-07-03T15:21:18;33.60;93.90
37002;DHT22;22913;51.910;8.374;2022-07-03T15:24:06;33.60;94.30
37002;DHT22;22913;51.910;8.374;2022-07-03T15:26:53;33.70;94.40
37002;DHT22;22913;51.910;8.374;2022-07-03T15:29:38;33.90;93.70
37002;DHT22;22913;51.910;8.374;2022-07-03T15:32:26;34.30;93.20
37002;DHT22;22913;51.910;8.374;2022-07-03T15:35:12;34.00;93.10
37002;DHT22;22913;51.910;8.374;2022-07-03T15:38:09;34.30;92.60
37002;DHT22;22913;51.910;8.374;2022-07-03T15:40:56;34.60;92.50
37002;DHT22;22913;51.910;8.374;2022-07-03T15:43:55;34.50;91.20
37002;DHT22;22913;51.910;8.374;2022-07-03T15:46:55;33.70;91.50
37002;DHT22;22913;51.910;8.374;2022-07-03T15:49:41;32.90;92.30
37002;DHT22;22913;51.910;8.374;2022-07-03T15:52:29;32.20;92.80
37002;DHT22;22913;51.910;8.374;2022-07-03T15:55:19;32.00;93.50
37002;DHT22;22913;51.910;8.374;2022-07-03T15:58:10;32.20;93.80
37002;DHT22;22913;51.910;8.374;2022-07-03T16:00:58;32.00;93.70
37002;DHT22;22913;51.910;8.374;2022-07-03T16:04:02;32.00;94.40
37002;DHT22;22913;51.910;8.374;2022-07-03T16:06:49;32.10;94.00
37002;DHT22;22913;51.910;8.374;2022-07-03T16:09:35;32.20;93.80
37002;DHT22;22913;51.910;8.374;2022-07-03T16:12:22;32.10;93.80
37002;DHT22;22913;51.910;8.374;2022-07-03T16:15:09;31.70;94.30
37002;DHT22;22913;51.910;8.374;2022-07-03T16:17:55;31.00;94.90
37002;DHT22;22913;51.910;8.374;2022-07-03T16:20:41;30.30;95.30
37002;DHT22;22913;51.910;8.374;2022-07-03T16:23:29;29.70;95.80
37002;DHT22;22913;51.910;8.374;2022-07-03T16:26:15;29.30;96.60
37002;DHT22;22913;51.910;8.374;2022-07-03T16:29:03;29.30;96.90
37002;DHT22;22913;51.910;8.374;2022-07-03T16:31:50;29.20;97.30
37002;DHT22;22913;51.910;8.374;2022-07-03T16:34:38;28.90;96.80
37002;DHT22;22913;51.910;8.374;2022-07-03T16:37:35;28.80;97.40
37002;DHT22;22913;51.910;8.374;2022-07-03T16:40:22;28.60;98.00
37002;DHT22;22913;51.910;8.374;2022-07-03T16:43:11;28.40;98.30
37002;DHT22;22913;51.910;8.374;2022-07-03T16:46:01;28.20;98.60
37002;DHT22;22913;51.910;8.374;2022-07-03T16:48:48;28.00;98.90
37002;DHT22;22913;51.910;8.374;2022-07-03T16:51:34;27.90;98.80
37002;DHT22;22913;51.910;8.374;2022-07-03T16:54:20;27.70;99.20
37002;DHT22;22913;51.910;8.374;2022-07-03T16:57:08;27.60;99.50
37002;DHT22;22913;51.910;8.374;2022-07-03T16:59:54;27.50;99.90
37002;DHT22;22913;51.910;8.374;2022-07-03T17:02:42;27.30;99.70
37002;DHT22;22913;51.910;8.374;2022-07-03T17:05:27;27.10;99.90
37002;DHT22;22913;51.910;8.374;2022-07-03T17:08:15;27.00;99.90
37002;DHT22;22913;51.910;8.374;2022-07-03T17:11:02;26.80;99.90
37002;DHT22;22913;51.910;8.374;2022-07-03T17:13:47;26.50;99.90
37002;DHT22;22913;51.910;8.374;2022-07-03T17:16:40;26.60;99.90
37002;DHT22;22913;51.910;8.374;2022-07-03T17:19:31;26.60;99.90
37002;DHT22;22913;51.910;8.374;2022-07-03T17:22:17;26.60;99.90
37002;DHT22;22913;51.910;8.374;2022-07-03T17:25:05;26.60;99.90
37002;DHT22;22913;51.910;8.374;2022-07-03T17:27:51;26.60;99.90
37002;DHT22;22913;51.910;8.374;2022-07-03T17:30:54;26.50;99.90
37002;DHT22;22913;51.910;8.374;2022-07-03T17:33:44;26.40;99.90
37002;DHT22;22913;51.910;8.374;2022-07-03T17:36:31;26.20;99.90
37002;DHT22;22913;51.910;8.374;2022-07-03T17:39:18;26.10;99.90
37002;DHT22;22913;51.910;8.374;2022-07-03T17:42:04;26.00;99.90
37002;DHT22;22913;51.910;8.374;2022-07-03T17:44:52;26.00;99.90
37002;DHT22;22913;51.910;8.374;2022-07-03T17:47:40;25.90;99.90